Time;durP1;ratioP1;P1;durP2;ratioP2;P2;SDS_P1;SDS_P2;PMS_P1;PMS_P2;Temp;Humidity;BMP_temperature;BMP_pressure;BME280_temperature;BME280_humidity;BME280_pressure;Samples;Min_cycle;Max_cycle;Signal;HPM_P1;HPM_P2
2022/08/09 00:01:21;;;;;;;0.35;0.35;;;;;;;29.77;38.36;99302.16;5088928;28;20037;-58
2022/08/09 00:03:47;;;;;;;0.70;0.47;;;;;;;29.78;38.63;99298.09;5088962;28;20083;-57
2022/08/09 00:06:12;;;;;;;0.80;0.40;;;;;;;29.77;38.25;99302.94;5092243;28;20515;-58
2022/08/09 00:08:37;;;;;;;1.05;0.60;;;;;;;29.77;38.33;99302.94;5092194;28;20044;-58
2022/08/09 00:11:03;;;;;;;1.52;0.60;;;;;;;29.78;38.57;99298.09;5092173;28;20506;-58
2022/08/09 00:13:28;;;;;;;0.47;0.47;;;;;;;29.78;38.41;99293.25;5092027;28;20048;-58
2022/08/09 00:15:54;;;;;;;0.50;0.50;;;;;;;29.78;38.29;99295.28;5092164;28;20123;-58
2022/08/09 00:18:19;;;;;;;0.70;0.40;;;;;;;29.78;38.42;99298.09;5092041;28;20032;-59
2022/08/09 00:20:44;;;;;;;0.70;0.60;;;;;;;29.77;38.60;99296.50;5091958;28;20063;-59
2022/08/09 00:23:10;;;;;;;0.60;0.50;;;;;;;29.77;38.54;99297.31;5092027;28;20040;-59
2022/08/09 00:25:35;;;;;;;0.40;0.40;;;;;;;29.78;38.38;99298.09;5091884;28;20063;-58
2022/08/09 00:28:02;;;;;;;2.20;0.45;;;;;;;29.77;38.26;99302.94;5089669;28;20225;-59
2022/08/09 00:30:28;;;;;;;0.65;0.50;;;;;;;29.77;38.71;99302.16;5091655;28;20125;-57
2022/08/09 00:32:53;;;;;;;0.50;0.50;;;;;;;29.76;38.68;99307.00;5091947;28;20094;-58
2022/08/09 00:35:18;;;;;;;0.80;0.50;;;;;;;29.76;38.32;99307.00;5091754;28;20563;-58
2022/08/09 00:37:44;;;;;;;0.75;0.50;;;;;;;29.77;38.69;99310.59;5091508;28;20036;-58
2022/08/09 00:40:10;;;;;;;0.70;0.50;;;;;;;29.77;38.76;99314.22;5091735;28;20040;-58
2022/08/09 00:42:35;;;;;;;0.40;0.40;;;;;;;29.77;38.60;99307.78;5091695;28;20048;-59
2022/08/09 00:45:03;;;;;;;0.60;0.50;;;;;;;29.76;38.80;99309.81;5091581;28;20058;-58
2022/08/09 00:47:28;;;;;;;1.45;0.45;;;;;;;29.76;38.77;99312.63;5091750;28;20052;-58
2022/08/09 00:49:54;;;;;;;1.13;0.52;;;;;;;29.77;38.82;99311.41;5091627;28;20475;-58
2022/08/09 00:52:21;;;;;;;0.57;0.40;;;;;;;29.78;38.67;99320.66;5091575;28;20545;-58
2022/08/09 00:54:48;;;;;;;0.57;0.40;;;;;;;29.76;38.58;99323.91;5091349;28;20050;-59
2022/08/09 00:57:13;;;;;;;0.85;0.50;;;;;;;29.76;38.84;99314.66;5091577;28;20048;-58
2022/08/09 00:59:41;;;;;;;0.73;0.57;;;;;;;29.77;38.33;99313.44;5091308;28;20051;-58
2022/08/09 01:02:07;;;;;;;0.50;0.50;;;;;;;29.78;38.37;99318.63;5091243;28;20064;-58
2022/08/09 01:04:51;;;;;;;0.73;0.43;;;;;;;29.78;38.72;99323.47;5090913;28;20074;-57
2022/08/09 01:07:25;;;;;;;0.80;0.50;;;;;;;29.79;38.51;99330.69;5091062;28;20052;-59
2022/08/09 01:10:01;;;;;;;1.48;0.50;;;;;;;29.78;38.69;99320.66;5089106;28;20052;-58
2022/08/09 01:13:03;;;;;;;0.60;0.60;;;;;;;29.80;38.66;99329.47;5091185;28;20044;-57
2022/08/09 01:15:37;;;;;;;0.60;0.50;;;;;;;29.80;38.43;99326.66;5008726;28;20153;-57
2022/08/09 01:18:17;;;;;;;0.43;0.40;;;;;;;29.80;38.73;99326.66;5008802;28;20052;-59
2022/08/09 01:21:01;;;;;;;1.02;0.70;;;;;;;29.80;38.61;99333.09;5008538;28;20058;-57
2022/08/09 01:23:48;;;;;;;0.85;0.50;;;;;;;29.81;38.38;99322.59;5008884;28;20042;-57
2022/08/09 01:26:35;;;;;;;0.77;0.40;;;;;;;29.82;38.82;99333.44;5008746;28;20041;-59
2022/08/09 01:29:02;;;;;;;0.50;0.40;;;;;;;29.82;38.67;99332.66;5008923;28;20081;-58
2022/08/09 01:31:30;;;;;;;0.60;0.47;;;;;;;29.81;38.66;99326.22;5008552;28;20117;-59
2022/08/09 01:33:58;;;;;;;0.85;0.57;;;;;;;29.82;38.79;99332.66;5008542;28;20053;-58
2022/08/09 01:36:26;;;;;;;0.80;0.52;;;;;;;29.82;38.51;99324.19;5008487;28;20054;-58
2022/08/09 01:38:52;;;;;;;0.57;0.50;;;;;;;29.81;38.70;99323.41;5008279;28;20050;-59
2022/08/09 01:41:21;;;;;;;0.60;0.43;;;;;;;29.84;38.44;99328.16;5008617;28;20149;-59
2022/08/09 01:43:53;;;;;;;0.70;0.50;;;;;;;29.84;38.73;99321.72;5008370;28;20568;-59
2022/08/09 01:46:28;;;;;;;0.43;0.40;;;;;;;29.83;38.44;99322.94;5008487;28;20100;-59
2022/08/09 01:49:04;;;;;;;0.57;0.47;;;;;;;29.83;38.50;99325.78;5008555;28;20165;-58
2022/08/09 01:51:32;;;;;;;0.70;0.50;;;;;;;29.84;38.68;99322.50;5038556;28;20051;-59
2022/08/09 01:54:00;;;;;;;1.00;0.60;;;;;;;29.81;38.43;99317.75;5090426;28;20044;-58
2022/08/09 01:56:27;;;;;;;0.65;0.50;;;;;;;29.84;38.42;99330.97;5090290;28;20039;-58
2022/08/09 01:58:55;;;;;;;0.47;0.45;;;;;;;29.86;38.25;99327.69;5090406;28;20046;-58
2022/08/09 02:01:24;;;;;;;0.45;0.40;;;;;;;29.85;38.37;99324.09;5090326;28;20052;-58
2022/08/09 02:03:50;;;;;;;0.75;0.40;;;;;;;29.85;38.60;99324.09;5090245;28;20055;-58
2022/08/09 02:07:07;;;;;;;0.95;0.50;;;;;;;29.86;38.39;99324.88;5090293;28;20514;-58
2022/08/09 02:09:06;;;;;;;0.32;0.30;;;;;;;29.87;38.57;99329.31;5089095;28;20071;-59
2022/08/09 02:11:31;;;;;;;0.93;0.60;;;;;;;29.86;38.54;99324.88;5090254;28;20040;-59
2022/08/09 02:14:01;;;;;;;0.60;0.40;;;;;;;29.85;38.57;99331.75;5090308;28;20048;-58
2022/08/09 02:16:32;;;;;;;0.55;0.43;;;;;;;29.87;38.44;99329.31;5090257;28;20071;-58
2022/08/09 02:18:58;;;;;;;0.60;0.50;;;;;;;29.86;38.75;99324.88;5090081;28;20044;-58
2022/08/09 02:21:24;;;;;;;0.77;0.50;;;;;;;29.85;38.32;99314.84;5089918;28;20056;-57
2022/08/09 02:23:53;;;;;;;0.73;0.50;;;;;;;29.86;38.62;99331.34;5086657;28;20059;-57
2022/08/09 02:26:19;;;;;;;0.95;0.50;;;;;;;29.85;38.33;99321.28;5089877;28;20051;-57
2022/08/09 02:28:58;;;;;;;0.75;0.50;;;;;;;29.88;38.58;99330.91;5089648;28;20044;-58
2022/08/09 02:31:29;;;;;;;1.33;0.50;;;;;;;29.88;38.61;99325.25;5089843;28;20127;-59
2022/08/09 02:34:00;;;;;;;0.80;0.40;;;;;;;29.86;38.31;99319.25;5089919;28;20047;-59
2022/08/09 02:36:36;;;;;;;0.93;0.60;;;;;;;29.88;38.49;99322.44;5089842;28;20060;-59
2022/08/09 02:39:05;;;;;;;0.50;0.50;;;;;;;29.88;38.34;99336.53;5090029;28;20097;-59
2022/08/09 02:41:42;;;;;;;0.90;0.50;;;;;;;29.87;38.34;99330.09;5089701;28;20419;-58
2022/08/09 02:44:12;;;;;;;0.47;0.43;;;;;;;29.88;38.38;99339.34;5089677;28;20059;-59
2022/08/09 02:46:39;;;;;;;0.80;0.60;;;;;;;29.87;38.69;99338.56;5089701;28;20036;-59
2022/08/09 02:49:07;;;;;;;0.50;0.40;;;;;;;29.88;38.49;99347.81;5089525;28;20149;-57
2022/08/09 02:51:36;;;;;;;0.93;0.60;;;;;;;29.87;38.67;99340.59;5089354;28;20109;-59
2022/08/09 02:54:03;;;;;;;0.80;0.47;;;;;;;29.89;38.64;99349.41;5089568;28;20048;-58
2022/08/09 02:56:33;;;;;;;1.05;0.40;;;;;;;29.88;38.48;99339.34;5089666;28;20416;-59
2022/08/09 02:59:02;;;;;;;1.35;0.75;;;;;;;29.88;38.55;99342.97;5089591;28;20048;-59
2022/08/09 03:01:29;;;;;;;0.47;0.47;;;;;;;29.88;38.61;99357.06;5089552;28;20063;-59
2022/08/09 03:03:56;;;;;;;0.30;0.30;;;;;;;29.88;38.59;99353.47;5089380;28;20058;-59
2022/08/09 03:06:24;;;;;;;0.52;0.40;;;;;;;29.88;38.65;99357.06;5089458;28;20055;-59
2022/08/09 03:08:51;;;;;;;1.00;0.50;;;;;;;29.88;38.33;99357.06;5089341;28;20059;-59
2022/08/09 03:11:19;;;;;;;0.55;0.50;;;;;;;29.89;38.54;99355.03;5089343;28;20048;-59
2022/08/09 03:13:47;;;;;;;0.50;0.40;;;;;;;29.87;38.69;99358.31;5089233;28;20075;-58
2022/08/09 03:16:17;;;;;;;0.50;0.40;;;;;;;29.90;38.31;99361.47;5089231;28;20389;-58
2022/08/09 03:18:45;;;;;;;0.68;0.50;;;;;;;29.88;38.28;99359.88;5089410;28;20520;-59
2022/08/09 03:21:11;;;;;;;0.63;0.50;;;;;;;29.91;38.52;99363.84;5089164;28;20040;-59
2022/08/09 03:23:36;;;;;;;0.40;0.40;;;;;;;29.88;38.47;99353.47;5089282;28;20439;-59
2022/08/09 03:26:03;;;;;;;1.15;0.40;;;;;;;29.89;38.19;99352.22;5089227;28;20048;-58
2022/08/09 03:28:29;;;;;;;0.68;0.50;;;;;;;29.89;38.64;99349.41;5089201;28;20133;-58
2022/08/09 03:30:55;;;;;;;0.50;0.40;;;;;;;29.90;38.27;99347.38;5089189;28;20079;-58
2022/08/09 03:33:22;;;;;;;0.40;0.40;;;;;;;29.90;38.24;99350.97;5089168;28;20154;-58
2022/08/09 03:35:49;;;;;;;0.52;0.40;;;;;;;29.91;38.71;99346.13;5089336;28;20048;-59
2022/08/09 03:38:15;;;;;;;0.65;0.47;;;;;;;29.90;38.56;99350.97;5089130;28;20560;-59
2022/08/09 03:40:40;;;;;;;0.55;0.40;;;;;;;29.90;38.46;99353.81;5091933;28;20036;-58
2022/08/09 03:43:05;;;;;;;0.50;0.50;;;;;;;29.91;38.23;99358.22;5092211;28;20044;-58
2022/08/09 03:45:31;;;;;;;0.43;0.40;;;;;;;29.92;38.32;99359.78;5092508;28;20040;-58
2022/08/09 03:47:56;;;;;;;0.35;0.35;;;;;;;29.90;38.21;99355.84;5092481;28;20052;-58
2022/08/09 03:50:25;;;;;;;0.90;0.50;;;;;;;29.91;38.18;99358.22;5092151;28;20044;-59
2022/08/09 03:52:53;;;;;;;0.55;0.47;;;;;;;29.91;38.24;99358.22;5092267;28;20553;-59
2022/08/09 03:55:20;;;;;;;0.60;0.45;;;;;;;29.89;38.63;99352.22;5092505;28;20051;-58
2022/08/09 03:57:47;;;;;;;0.73;0.50;;;;;;;29.91;38.53;99358.22;5092320;28;20047;-57
2022/08/09 04:00:13;;;;;;;0.50;0.50;;;;;;;29.91;38.32;99357.41;5091984;28;20534;-58
2022/08/09 04:02:42;;;;;;;0.52;0.40;;;;;;;29.90;38.24;99362.25;5092002;28;20044;-59
2022/08/09 04:05:09;;;;;;;0.98;0.50;;;;;;;29.90;38.49;99359.44;5092242;28;20066;-59
2022/08/09 04:07:35;;;;;;;0.82;0.40;;;;;;;29.90;38.63;99362.25;5092080;28;20052;-59
2022/08/09 04:10:01;;;;;;;1.00;0.50;;;;;;;29.91;38.46;99365.88;5073902;28;20044;-59
2022/08/09 04:12:40;;;;;;;0.90;0.52;;;;;;;29.90;38.61;99369.94;5092167;28;20119;-59
2022/08/09 04:15:07;;;;;;;0.50;0.43;;;;;;;29.92;38.26;99370.28;5091937;28;20052;-59
2022/08/09 04:17:32;;;;;;;0.65;0.40;;;;;;;29.91;38.49;99372.31;5092113;28;20115;-57
2022/08/09 04:19:57;;;;;;;0.47;0.40;;;;;;;29.88;38.38;99365.53;5092032;28;20052;-58
2022/08/09 04:22:23;;;;;;;0.63;0.50;;;;;;;29.91;38.62;99368.69;5091652;28;20128;-59
2022/08/09 04:24:48;;;;;;;0.95;0.60;;;;;;;29.89;38.30;99371.97;5091647;28;20054;-58
2022/08/09 04:27:14;;;;;;;0.63;0.50;;;;;;;29.90;38.67;99382.00;5091905;28;20051;-58
2022/08/09 04:29:39;;;;;;;0.40;0.40;;;;;;;29.91;38.62;99380.78;5091622;28;20044;-58
2022/08/09 04:32:05;;;;;;;0.40;0.40;;;;;;;29.88;38.50;99381.66;5092004;28;20044;-58
2022/08/09 04:34:32;;;;;;;0.60;0.50;;;;;;;29.90;38.71;99384.81;5091666;28;20055;-58
2022/08/09 04:36:58;;;;;;;0.40;0.40;;;;;;;29.91;38.27;99392.06;5091721;28;20044;-58
2022/08/09 04:39:23;;;;;;;0.70;0.50;;;;;;;29.89;38.41;99394.53;5091636;28;20052;-59
2022/08/09 04:41:49;;;;;;;0.80;0.40;;;;;;;29.91;38.65;99396.91;5091577;28;20047;-59
2022/08/09 04:44:15;;;;;;;0.35;0.35;;;;;;;29.91;38.38;99399.72;5091478;28;20089;-59
2022/08/09 04:46:40;;;;;;;0.70;0.40;;;;;;;29.91;38.59;99396.91;5091586;28;20044;-59
2022/08/09 04:49:06;;;;;;;0.88;0.40;;;;;;;29.90;38.65;99396.09;5091599;28;20489;-58
2022/08/09 04:51:32;;;;;;;1.80;0.55;;;;;;;29.88;38.77;99404.22;5091137;28;20048;-59
2022/08/09 04:53:57;;;;;;;0.57;0.47;;;;;;;29.91;38.37;99411.78;5091366;28;20048;-59
2022/08/09 04:56:22;;;;;;;0.85;0.50;;;;;;;29.90;38.47;99410.22;5091400;28;20405;-58
2022/08/09 04:58:48;;;;;;;0.60;0.47;;;;;;;29.91;38.32;99414.63;5091183;28;20079;-58
2022/08/09 05:01:13;;;;;;;0.52;0.40;;;;;;;29.90;38.29;99413.03;5091133;28;20040;-58
2022/08/09 05:03:38;;;;;;;0.47;0.40;;;;;;;29.92;38.21;99418.22;5091197;28;20048;-59
2022/08/09 05:06:05;;;;;;;0.60;0.40;;;;;;;29.90;38.63;99410.22;5091342;28;20080;-59
2022/08/09 05:08:33;;;;;;;0.43;0.40;;;;;;;29.91;38.25;99413.81;5091124;28;20092;-59
2022/08/09 05:10:59;;;;;;;0.80;0.50;;;;;;;29.89;38.42;99411.44;5091029;28;20047;-58
2022/08/09 05:13:25;;;;;;;0.50;0.43;;;;;;;29.89;38.27;99425.53;5091083;28;20071;-57
2022/08/09 05:15:50;;;;;;;0.40;0.40;;;;;;;29.88;38.51;99427.56;5091199;28;20496;-58
2022/08/09 05:18:15;;;;;;;0.70;0.50;;;;;;;29.91;38.33;99425.09;5091103;28;20082;-58
2022/08/09 05:20:41;;;;;;;0.52;0.43;;;;;;;29.91;38.36;99428.72;5090975;28;20059;-59
2022/08/09 05:23:06;;;;;;;0.88;0.50;;;;;;;29.91;38.48;99425.91;5091047;28;20101;-58
2022/08/09 05:25:32;;;;;;;0.40;0.40;;;;;;;29.87;38.63;99425.19;5090935;28;20123;-58
2022/08/09 05:27:57;;;;;;;0.55;0.45;;;;;;;29.91;38.72;99433.56;5091027;28;20500;-59
2022/08/09 05:30:23;;;;;;;0.47;0.40;;;;;;;29.91;38.72;99434.34;5091113;28;20043;-58
2022/08/09 05:32:48;;;;;;;1.73;0.43;;;;;;;29.91;38.56;99437.16;5090805;28;20496;-59
2022/08/09 05:35:13;;;;;;;0.77;0.50;;;;;;;29.91;38.59;99434.34;5090894;28;20052;-58
2022/08/09 05:37:39;;;;;;;0.65;0.40;;;;;;;29.90;38.29;99438.41;5090587;28;20415;-58
2022/08/09 05:40:06;;;;;;;0.68;0.50;;;;;;;29.92;38.32;99440.78;5090665;28;20130;-59
2022/08/09 05:42:32;;;;;;;0.80;0.50;;;;;;;29.91;38.52;99448.44;5090776;28;20048;-58
2022/08/09 05:44:58;;;;;;;0.40;0.40;;;;;;;29.91;38.64;99444.84;5090819;28;20059;-58
2022/08/09 05:47:26;;;;;;;0.50;0.50;;;;;;;29.91;38.50;99445.63;5090731;28;20047;-58
2022/08/09 05:49:53;;;;;;;0.68;0.50;;;;;;;29.91;38.55;99447.66;5088655;28;20424;-58
2022/08/09 05:52:19;;;;;;;0.50;0.40;;;;;;;29.91;38.74;99448.44;5090504;28;20040;-58
2022/08/09 05:54:45;;;;;;;0.60;0.43;;;;;;;29.91;38.46;99447.66;5090199;28;20048;-59
2022/08/09 05:57:10;;;;;;;0.80;0.50;;;;;;;29.91;38.65;99448.44;5090452;28;20059;-57
2022/08/09 05:59:36;;;;;;;0.57;0.50;;;;;;;29.93;38.35;99453.66;5090309;28;20055;-57
2022/08/09 06:02:01;;;;;;;0.40;0.40;;;;;;;29.89;38.61;99453.75;5089313;28;20046;-57
2022/08/09 06:04:26;;;;;;;0.98;0.43;;;;;;;29.75;38.23;99452.03;5090370;28;20143;-58
2022/08/09 06:06:52;;;;;;;0.70;0.60;;;;;;;29.59;38.70;99449.94;5090573;28;20044;-58
2022/08/09 06:09:19;;;;;;;0.47;0.43;;;;;;;29.44;39.27;99457.09;5090257;28;20040;-59
2022/08/09 06:11:44;;;;;;;0.60;0.50;;;;;;;29.31;39.73;99456.94;5090023;28;20105;-58
2022/08/09 06:14:10;;;;;;;0.60;0.50;;;;;;;29.17;39.52;99462.84;5090016;28;20036;-59
2022/08/09 06:16:35;;;;;;;0.50;0.40;;;;;;;29.07;39.56;99458.19;5090023;28;20044;-58
2022/08/09 06:19:01;;;;;;;0.50;0.40;;;;;;;29.05;39.62;99464.25;5090110;28;20068;-58
2022/08/09 06:21:26;;;;;;;0.95;0.60;;;;;;;29.06;39.69;99470.66;5089865;28;20048;-58
2022/08/09 06:23:54;;;;;;;0.40;0.40;;;;;;;29.01;39.73;99457.91;5089923;28;20051;-57
2022/08/09 06:26:21;;;;;;;0.50;0.45;;;;;;;28.98;39.89;99455.94;5089836;28;20037;-58
2022/08/09 06:28:47;;;;;;;1.00;0.60;;;;;;;29.00;39.76;99463.94;5090089;28;20515;-59
2022/08/09 06:31:13;;;;;;;0.73;0.50;;;;;;;28.93;39.94;99459.22;5089878;28;20493;-59
2022/08/09 06:33:38;;;;;;;0.68;0.50;;;;;;;28.96;39.88;99464.03;5089927;28;20075;-58
2022/08/09 06:36:04;;;;;;;0.52;0.50;;;;;;;28.98;39.66;99464.38;5089739;28;20044;-58
2022/08/09 06:38:29;;;;;;;1.48;0.77;;;;;;;28.97;39.66;99462.00;5089857;28;20059;-58
2022/08/09 06:40:55;;;;;;;0.60;0.50;;;;;;;28.97;39.39;99462.78;5089915;28;20090;-58
2022/08/09 06:43:20;;;;;;;0.60;0.60;;;;;;;28.96;39.58;99468.84;5089702;28;20055;-58
2022/08/09 06:45:46;;;;;;;0.65;0.50;;;;;;;28.96;39.31;99472.47;5089673;28;20438;-59
2022/08/09 06:48:11;;;;;;;0.55;0.43;;;;;;;28.96;39.22;99478.09;5089714;28;20055;-58
2022/08/09 06:50:37;;;;;;;0.40;0.40;;;;;;;28.95;39.22;99484.97;5089819;28;20036;-58
2022/08/09 06:53:03;;;;;;;0.50;0.43;;;;;;;28.91;39.17;99484.22;5089618;28;20036;-58
2022/08/09 06:55:31;;;;;;;0.32;0.32;;;;;;;28.91;39.18;99478.59;5089582;28;20079;-57
2022/08/09 06:57:57;;;;;;;0.88;0.50;;;;;;;28.89;38.83;99478.19;5089436;28;20131;-58
2022/08/09 07:00:24;;;;;;;0.85;0.52;;;;;;;28.89;38.96;99480.22;5089340;28;20135;-59
2022/08/09 07:02:50;;;;;;;1.10;0.50;;;;;;;28.88;39.08;99487.88;5089408;28;20055;-59
2022/08/09 07:05:15;;;;;;;0.55;0.40;;;;;;;28.87;38.66;99477.84;5089353;28;20116;-58
2022/08/09 07:07:41;;;;;;;0.63;0.40;;;;;;;28.86;38.68;99484.66;5089156;28;20036;-58
2022/08/09 07:10:07;;;;;;;0.77;0.50;;;;;;;28.86;38.95;99493.13;5089121;28;20044;-58
2022/08/09 07:12:32;;;;;;;0.40;0.40;;;;;;;28.85;38.57;99485.91;5089216;28;20040;-58
2022/08/09 07:14:57;;;;;;;0.43;0.40;;;;;;;28.85;38.57;99483.06;5089345;28;20047;-58
2022/08/09 07:17:23;;;;;;;0.80;0.45;;;;;;;28.83;38.82;99485.53;5088966;28;20126;-58
2022/08/09 07:19:49;;;;;;;0.75;0.47;;;;;;;28.78;38.71;99481.19;5089240;28;20056;-59
2022/08/09 07:22:15;;;;;;;0.60;0.40;;;;;;;28.76;38.80;99482.84;5089134;28;20638;-59
2022/08/09 07:24:40;;;;;;;0.43;0.35;;;;;;;28.78;38.42;99486.00;5089232;28;20073;-58
2022/08/09 07:27:10;;;;;;;0.50;0.45;;;;;;;28.75;38.35;99487.69;5089041;28;20051;-58
2022/08/09 07:29:36;;;;;;;0.80;0.50;;;;;;;28.75;38.25;99489.69;5089117;28;20071;-58
2022/08/09 07:32:02;;;;;;;0.80;0.40;;;;;;;28.76;38.45;99491.28;5088858;28;20496;-58
2022/08/09 07:34:28;;;;;;;0.40;0.40;;;;;;;28.76;38.33;99488.47;5089175;28;20401;-58
2022/08/09 07:36:54;;;;;;;0.50;0.50;;;;;;;28.77;38.09;99484.44;5088987;28;20043;-58
2022/08/09 07:39:20;;;;;;;0.70;0.40;;;;;;;28.76;38.03;99486.44;5088945;28;20044;-58
2022/08/09 07:41:46;;;;;;;0.68;0.60;;;;;;;28.76;38.04;99488.47;5089028;28;20453;-59
2022/08/09 07:44:11;;;;;;;0.50;0.40;;;;;;;28.78;38.05;99486.00;5088817;28;20507;-58
2022/08/09 07:46:36;;;;;;;1.02;0.50;;;;;;;28.75;38.12;99487.69;5089101;28;20056;-59
2022/08/09 07:49:02;;;;;;;0.55;0.40;;;;;;;28.73;38.08;99481.69;5088980;28;20051;-59
2022/08/09 07:51:27;;;;;;;0.38;0.38;;;;;;;28.76;37.88;99482.84;5088784;28;20048;-58
2022/08/09 07:53:53;;;;;;;0.50;0.40;;;;;;;28.76;37.82;99485.66;5070634;28;20404;-57
2022/08/09 07:56:18;;;;;;;0.70;0.50;;;;;;;28.72;37.98;99480.09;5088727;28;20418;-57
2022/08/09 07:58:44;;;;;;;0.45;0.40;;;;;;;28.69;38.67;99475.31;5088544;28;20071;-58
2022/08/09 08:01:10;;;;;;;0.43;0.40;;;;;;;28.60;39.05;99477.09;5088805;28;20059;-58
2022/08/09 08:03:36;;;;;;;0.70;0.50;;;;;;;28.61;39.07;99482.28;5088506;28;20109;-59
2022/08/09 08:06:01;;;;;;;0.55;0.50;;;;;;;28.67;39.11;99474.94;5088655;28;20055;-58
2022/08/09 08:08:27;;;;;;;0.60;0.47;;;;;;;28.65;39.12;99473.78;5088727;28;20075;-59
2022/08/09 08:10:52;;;;;;;0.55;0.40;;;;;;;28.69;38.96;99478.13;5088586;28;20032;-58
2022/08/09 08:13:18;;;;;;;0.50;0.47;;;;;;;28.74;39.07;99474.03;5088546;28;20419;-58
2022/08/09 08:15:44;;;;;;;0.88;0.45;;;;;;;28.76;38.66;99471.59;5088661;28;20047;-58
2022/08/09 08:18:09;;;;;;;0.68;0.40;;;;;;;28.70;38.95;99462.81;5088422;28;20071;-58
2022/08/09 08:20:35;;;;;;;0.30;0.30;;;;;;;28.65;39.08;99473.78;5088384;28;20131;-58
2022/08/09 08:23:03;;;;;;;0.50;0.50;;;;;;;28.57;39.41;99472.28;5088063;28;20036;-58
2022/08/09 08:25:29;;;;;;;0.40;0.30;;;;;;;28.53;39.39;99472.38;5089583;28;20040;-58
2022/08/09 08:27:54;;;;;;;0.52;0.40;;;;;;;28.54;39.12;99465.50;5089794;28;20195;-58
2022/08/09 08:30:19;;;;;;;0.40;0.40;;;;;;;28.58;39.10;99469.06;5091886;28;20058;-58
2022/08/09 08:32:45;;;;;;;0.50;0.50;;;;;;;28.59;39.06;99456.59;5091880;28;20497;-58
2022/08/09 08:35:11;;;;;;;0.45;0.43;;;;;;;28.65;39.05;99462.53;5091906;28;20123;-58
2022/08/09 08:37:36;;;;;;;0.47;0.43;;;;;;;28.69;38.93;99452.00;5091546;28;20131;-58
2022/08/09 08:40:06;;;;;;;0.82;0.50;;;;;;;28.70;38.74;99456.41;5091536;28;20036;-58
2022/08/09 08:42:32;;;;;;;0.43;0.40;;;;;;;28.68;39.07;99453.22;5091655;28;20039;-58
2022/08/09 08:44:58;;;;;;;0.40;0.40;;;;;;;28.69;38.82;99455.59;5091611;28;20155;-57
2022/08/09 08:47:28;;;;;;;0.50;0.50;;;;;;;28.70;39.00;99451.56;5091390;28;20040;-58
2022/08/09 08:49:57;;;;;;;0.82;0.55;;;;;;;28.71;38.84;99453.16;5091460;28;20076;-58
2022/08/09 08:52:24;;;;;;;0.47;0.40;;;;;;;28.69;38.92;99441.53;5091549;28;20052;-57
2022/08/09 08:54:53;;;;;;;0.55;0.40;;;;;;;28.67;38.56;99449.63;5091588;28;20047;-58
2022/08/09 08:57:20;;;;;;;0.50;0.30;;;;;;;28.73;38.68;99447.91;5091652;28;20059;-58
2022/08/09 08:59:45;;;;;;;0.40;0.40;;;;;;;28.78;38.66;99443.78;5091557;28;20056;-59
2022/08/09 09:02:20;;;;;;;0.50;0.40;;;;;;;28.77;38.54;99447.84;5091281;28;20047;-59
2022/08/09 09:04:46;;;;;;;0.32;0.30;;;;;;;28.76;38.49;99440.63;5091259;28;20066;-57
2022/08/09 09:07:14;;;;;;;0.38;0.38;;;;;;;28.75;38.58;99442.63;5091261;28;20040;-58
2022/08/09 09:09:44;;;;;;;0.65;0.52;;;;;;;28.79;38.43;99442.56;5091057;28;20060;-58
2022/08/09 09:12:10;;;;;;;0.75;0.50;;;;;;;28.82;38.48;99438.91;5091259;28;20462;-58
2022/08/09 09:14:36;;;;;;;0.80;0.55;;;;;;;28.78;38.56;99436.13;5091128;28;20056;-59
2022/08/09 09:17:02;;;;;;;0.73;0.50;;;;;;;28.81;38.50;99431.69;5091170;28;20069;-59
2022/08/09 09:19:28;;;;;;;0.70;0.50;;;;;;;28.79;38.38;99425.66;5090845;28;20083;-58
2022/08/09 09:21:57;;;;;;;0.55;0.43;;;;;;;28.80;38.26;99432.91;5090721;28;20407;-58
2022/08/09 09:24:30;;;;;;;0.47;0.40;;;;;;;28.81;38.39;99423.25;5090763;28;20093;-58
2022/08/09 09:26:57;;;;;;;0.57;0.43;;;;;;;28.81;38.29;99414.78;5091113;28;20123;-59
2022/08/09 09:29:28;;;;;;;0.50;0.40;;;;;;;28.83;38.37;99414.34;5090991;28;20059;-58
2022/08/09 09:31:54;;;;;;;0.60;0.50;;;;;;;28.83;38.13;99414.34;5088668;28;20052;-58
2022/08/09 09:34:19;;;;;;;0.32;0.32;;;;;;;28.80;38.21;99410.38;5090806;28;20040;-58
2022/08/09 09:36:45;;;;;;;0.40;0.30;;;;;;;28.84;38.25;99411.09;5089532;28;20059;-58
2022/08/09 09:39:10;;;;;;;0.52;0.40;;;;;;;28.83;38.09;99414.34;5090787;28;20098;-57
2022/08/09 09:41:36;;;;;;;0.75;0.40;;;;;;;28.84;38.15;99408.28;5090794;28;20185;-58
2022/08/09 09:44:04;;;;;;;0.43;0.40;;;;;;;28.85;38.36;99404.25;5090680;28;20044;-59
2022/08/09 09:46:34;;;;;;;0.50;0.40;;;;;;;28.85;38.13;99407.06;5090620;28;20377;-58
2022/08/09 09:49:03;;;;;;;0.55;0.40;;;;;;;28.85;37.82;99400.63;5073202;28;20418;-58
2022/08/09 09:51:29;;;;;;;0.40;0.30;;;;;;;28.84;38.05;99394.22;5090566;28;20055;-58
2022/08/09 09:54:10;;;;;;;0.63;0.40;;;;;;;28.84;38.02;99396.25;5090313;28;20384;-58
2022/08/09 09:56:42;;;;;;;0.60;0.40;;;;;;;28.87;38.17;99398.22;5090499;28;20136;-57
2022/08/09 09:59:13;;;;;;;0.47;0.47;;;;;;;28.85;38.00;99395.00;5090440;28;20139;-58
2022/08/09 10:01:40;;;;;;;0.30;0.30;;;;;;;28.86;37.82;99397.38;5090439;28;20089;-58
2022/08/09 10:04:16;;;;;;;0.57;0.50;;;;;;;28.83;38.08;99389.81;5090046;28;20642;-58
2022/08/09 10:06:44;;;;;;;0.45;0.40;;;;;;;28.84;37.99;99388.59;5090285;28;20078;-58
2022/08/09 10:09:12;;;;;;;0.50;0.40;;;;;;;28.84;37.96;99388.59;5090393;28;20040;-58
2022/08/09 10:11:38;;;;;;;0.30;0.30;;;;;;;28.84;38.10;99374.50;5090247;28;20059;-58
2022/08/09 10:14:04;;;;;;;0.57;0.47;;;;;;;28.84;37.79;99380.13;5072041;28;20047;-58
2022/08/09 10:16:36;;;;;;;0.30;0.30;;;;;;;28.87;37.82;99370.84;5090211;28;20510;-58
2022/08/09 10:19:07;;;;;;;0.70;0.43;;;;;;;28.86;37.82;99368.44;5090320;28;20202;-58
2022/08/09 10:21:46;;;;;;;0.82;0.55;;;;;;;28.86;37.73;99369.22;5090108;28;20101;-58
2022/08/09 10:24:11;;;;;;;0.47;0.40;;;;;;;28.86;37.55;99351.53;5090053;28;20131;-58
2022/08/09 10:26:39;;;;;;;0.43;0.40;;;;;;;28.86;37.91;99360.78;5089898;28;20131;-58
2022/08/09 10:29:05;;;;;;;0.63;0.47;;;;;;;28.87;37.81;99356.75;5090156;28;20044;-58
2022/08/09 10:31:30;;;;;;;0.82;0.40;;;;;;;28.88;37.83;99354.75;5089947;28;20047;-59
2022/08/09 10:33:56;;;;;;;0.38;0.30;;;;;;;28.87;37.89;99353.94;5089723;28;20039;-59
2022/08/09 10:36:22;;;;;;;0.40;0.38;;;;;;;28.88;38.04;99343.47;5089673;28;20119;-58
2022/08/09 10:38:47;;;;;;;0.55;0.40;;;;;;;28.90;38.10;99349.47;5089854;28;20040;-59
2022/08/09 10:41:14;;;;;;;0.50;0.50;;;;;;;28.91;37.95;99337.00;5089910;28;20389;-57
2022/08/09 10:43:43;;;;;;;0.32;0.30;;;;;;;28.86;37.62;99334.66;5089752;28;20044;-58
2022/08/09 10:46:21;;;;;;;0.38;0.38;;;;;;;28.83;38.33;99335.53;5089577;28;20047;-58
2022/08/09 10:49:05;;;;;;;0.50;0.45;;;;;;;28.79;38.40;99338.41;5089176;28;20098;-58
2022/08/09 10:51:48;;;;;;;0.52;0.45;;;;;;;28.77;38.42;99338.03;5089476;28;20052;-58
2022/08/09 10:54:14;;;;;;;0.52;0.50;;;;;;;28.77;38.41;99321.94;5089454;28;20052;-58
2022/08/09 10:56:42;;;;;;;0.50;0.40;;;;;;;28.78;38.35;99317.09;5089610;28;20415;-57
2022/08/09 10:59:36;;;;;;;0.45;0.40;;;;;;;28.84;38.37;99318.19;5089450;28;20051;-58
2022/08/09 11:02:03;;;;;;;0.98;0.45;;;;;;;28.81;37.63;99310.63;5086891;28;20407;-59
2022/08/09 11:04:29;;;;;;;0.50;0.30;;;;;;;28.77;38.46;99310.69;5089601;28;20060;-58
2022/08/09 11:06:57;;;;;;;0.73;0.50;;;;;;;28.72;38.77;99307.56;5089275;28;20512;-59
2022/08/09 11:09:38;;;;;;;0.43;0.40;;;;;;;28.69;38.70;99309.25;5089241;28;20040;-59
2022/08/09 11:12:18;;;;;;;0.77;0.50;;;;;;;28.70;38.87;99304.41;5089238;28;20404;-57
2022/08/09 11:14:53;;;;;;;0.43;0.35;;;;;;;28.70;38.68;99302.38;5089253;28;20043;-59
2022/08/09 11:17:19;;;;;;;0.60;0.40;;;;;;;28.77;38.70;99295.81;5089296;28;20056;-58
2022/08/09 11:20:00;;;;;;;0.30;0.30;;;;;;;28.79;38.47;99297.00;5089285;28;20499;-58
2022/08/09 11:22:43;;;;;;;0.30;0.30;;;;;;;28.83;38.56;99290.47;5089253;28;20052;-58
2022/08/09 11:25:13;;;;;;;0.32;0.32;;;;;;;28.80;37.93;99286.53;5089354;28;20091;-58
2022/08/09 11:27:46;;;;;;;0.35;0.30;;;;;;;28.76;38.51;99295.03;5088971;28;20400;-58
2022/08/09 11:30:31;;;;;;;0.40;0.40;;;;;;;28.65;38.88;99290.84;5089176;28;20507;-58
2022/08/09 11:33:08;;;;;;;0.73;0.50;;;;;;;28.66;39.05;99281.97;5089077;28;20468;-58
2022/08/09 11:35:44;;;;;;;0.65;0.40;;;;;;;28.67;39.02;99279.94;5089052;28;20418;-58
2022/08/09 11:38:18;;;;;;;0.47;0.40;;;;;;;28.72;38.84;99276.59;5089193;28;20036;-59